sensor_id;sensor_type;location;lat;lon;timestamp;pressure;altitude;pressure_sealevel;temperature
15607;BMP180;7865;50.918;4.510;2022-12-01T00:04:20;102092.00;;;4.90
15607;BMP180;7865;50.918;4.510;2022-12-01T00:09:22;102087.00;;;5.00
15607;BMP180;7865;50.918;4.510;2022-12-01T00:14:42;102081.00;;;5.00
15607;BMP180;7865;50.918;4.510;2022-12-01T00:19:44;102076.00;;;4.90
15607;BMP180;7865;50.918;4.510;2022-12-01T00:24:46;102076.00;;;4.90
15607;BMP180;7865;50.918;4.510;2022-12-01T00:29:48;102081.00;;;4.90
15607;BMP180;7865;50.918;4.510;2022-12-01T00:34:50;102082.00;;;4.90
15607;BMP180;7865;50.918;4.510;2022-12-01T00:39:52;102075.00;;;4.80
15607;BMP180;7865;50.918;4.510;2022-12-01T00:44:54;102082.00;;;4.90
15607;BMP180;7865;50.918;4.510;2022-12-01T00:49:56;102087.00;;;5.00
15607;BMP180;7865;50.918;4.510;2022-12-01T00:54:58;102079.00;;;5.00
15607;BMP180;7865;50.918;4.510;2022-12-01T00:59:59;102082.00;;;5.10
15607;BMP180;7865;50.918;4.510;2022-12-01T01:05:01;102085.00;;;5.10
15607;BMP180;7865;50.918;4.510;2022-12-01T01:10:03;102092.00;;;5.10
15607;BMP180;7865;50.918;4.510;2022-12-01T01:15:06;102089.00;;;5.10
15607;BMP180;7865;50.918;4.510;2022-12-01T01:20:08;102092.00;;;5.10
15607;BMP180;7865;50.918;4.510;2022-12-01T01:25:10;102101.00;;;5.10
15607;BMP180;7865;50.918;4.510;2022-12-01T01:30:12;102115.00;;;5.10
15607;BMP180;7865;50.918;4.510;2022-12-01T01:35:14;102127.00;;;5.20
15607;BMP180;7865;50.918;4.510;2022-12-01T01:40:16;102127.00;;;5.10
15607;BMP180;7865;50.918;4.510;2022-12-01T01:45:24;102131.00;;;5.10
15607;BMP180;7865;50.918;4.510;2022-12-01T01:50:27;102130.00;;;5.10
15607;BMP180;7865;50.918;4.510;2022-12-01T01:55:30;102129.00;;;5.10
15607;BMP180;7865;50.918;4.510;2022-12-01T02:00:34;102130.00;;;5.10
15607;BMP180;7865;50.918;4.510;2022-12-01T02:05:37;102136.00;;;5.00
15607;BMP180;7865;50.918;4.510;2022-12-01T02:11:13;102129.00;;;5.00
15607;BMP180;7865;50.918;4.510;2022-12-01T02:16:25;102140.00;;;5.00
15607;BMP180;7865;50.918;4.510;2022-12-01T02:21:36;102142.00;;;5.00
15607;BMP180;7865;50.918;4.510;2022-12-01T02:26:49;102141.00;;;5.00
15607;BMP180;7865;50.918;4.510;2022-12-01T02:37:19;102138.00;;;4.90
15607;BMP180;7865;50.918;4.510;2022-12-01T02:42:35;102135.00;;;4.90
15607;BMP180;7865;50.918;4.510;2022-12-01T02:47:57;102140.00;;;4.90
15607;BMP180;7865;50.918;4.510;2022-12-01T02:53:02;102131.00;;;4.90
15607;BMP180;7865;50.918;4.510;2022-12-01T02:58:12;102134.00;;;5.00
15607;BMP180;7865;50.918;4.510;2022-12-01T03:03:44;102132.00;;;5.00
15607;BMP180;7865;50.918;4.510;2022-12-01T03:19:43;102118.00;;;4.90
15607;BMP180;7865;50.918;4.510;2022-12-01T03:24:48;102122.00;;;4.90
15607;BMP180;7865;50.918;4.510;2022-12-01T03:29:54;102120.00;;;4.90
15607;BMP180;7865;50.918;4.510;2022-12-01T03:34:58;102115.00;;;4.80
15607;BMP180;7865;50.918;4.510;2022-12-01T03:40:04;102130.00;;;4.80
15607;BMP180;7865;50.918;4.510;2022-12-01T03:45:13;102125.00;;;4.80
15607;BMP180;7865;50.918;4.510;2022-12-01T03:50:16;102129.00;;;4.80
15607;BMP180;7865;50.918;4.510;2022-12-01T03:55:27;102122.00;;;4.80
15607;BMP180;7865;50.918;4.510;2022-12-01T04:00:30;102122.00;;;4.80
15607;BMP180;7865;50.918;4.510;2022-12-01T04:05:33;102125.00;;;4.80
15607;BMP180;7865;50.918;4.510;2022-12-01T04:10:35;102118.00;;;4.80
15607;BMP180;7865;50.918;4.510;2022-12-01T04:15:37;102120.00;;;4.80
15607;BMP180;7865;50.918;4.510;2022-12-01T04:20:39;102111.00;;;4.80
15607;BMP180;7865;50.918;4.510;2022-12-01T04:25:41;102118.00;;;4.80
15607;BMP180;7865;50.918;4.510;2022-12-01T04:30:43;102112.00;;;4.80
15607;BMP180;7865;50.918;4.510;2022-12-01T04:35:45;102106.00;;;4.90
15607;BMP180;7865;50.918;4.510;2022-12-01T04:40:46;102120.00;;;4.90
15607;BMP180;7865;50.918;4.510;2022-12-01T04:45:48;102111.00;;;4.90
15607;BMP180;7865;50.918;4.510;2022-12-01T04:50:50;102109.00;;;5.00
15607;BMP180;7865;50.918;4.510;2022-12-01T04:55:52;102116.00;;;5.00
15607;BMP180;7865;50.918;4.510;2022-12-01T05:00:54;102113.00;;;5.00
15607;BMP180;7865;50.918;4.510;2022-12-01T05:06:17;102113.00;;;5.00
15607;BMP180;7865;50.918;4.510;2022-12-01T05:11:19;102103.00;;;5.00
15607;BMP180;7865;50.918;4.510;2022-12-01T05:16:26;102109.00;;;5.10
15607;BMP180;7865;50.918;4.510;2022-12-01T05:21:28;102114.00;;;5.10
15607;BMP180;7865;50.918;4.510;2022-12-01T05:26:30;102110.00;;;5.10
15607;BMP180;7865;50.918;4.510;2022-12-01T05:31:33;102114.00;;;5.10
15607;BMP180;7865;50.918;4.510;2022-12-01T05:36:35;102112.00;;;5.10
15607;BMP180;7865;50.918;4.510;2022-12-01T05:41:37;102113.00;;;5.10
15607;BMP180;7865;50.918;4.510;2022-12-01T05:46:39;102114.00;;;5.10
15607;BMP180;7865;50.918;4.510;2022-12-01T05:51:42;102122.00;;;5.10
15607;BMP180;7865;50.918;4.510;2022-12-01T05:56:44;102118.00;;;5.10
15607;BMP180;7865;50.918;4.510;2022-12-01T06:01:46;102120.00;;;5.10
15607;BMP180;7865;50.918;4.510;2022-12-01T06:06:48;102115.00;;;5.10
15607;BMP180;7865;50.918;4.510;2022-12-01T06:11:50;102116.00;;;5.10
15607;BMP180;7865;50.918;4.510;2022-12-01T06:16:53;102112.00;;;5.20
15607;BMP180;7865;50.918;4.510;2022-12-01T06:21:55;102114.00;;;5.20
15607;BMP180;7865;50.918;4.510;2022-12-01T06:26:57;102125.00;;;5.20
15607;BMP180;7865;50.918;4.510;2022-12-01T06:31:59;102126.00;;;5.10
15607;BMP180;7865;50.918;4.510;2022-12-01T06:37:01;102128.00;;;5.10
15607;BMP180;7865;50.918;4.510;2022-12-01T06:42:02;102133.00;;;5.20
15607;BMP180;7865;50.918;4.510;2022-12-01T06:47:04;102135.00;;;5.20
15607;BMP180;7865;50.918;4.510;2022-12-01T06:52:06;102133.00;;;5.20
15607;BMP180;7865;50.918;4.510;2022-12-01T06:57:08;102140.00;;;5.20
15607;BMP180;7865;50.918;4.510;2022-12-01T07:02:10;102160.00;;;5.20
15607;BMP180;7865;50.918;4.510;2022-12-01T07:07:12;102156.00;;;5.20
15607;BMP180;7865;50.918;4.510;2022-12-01T07:12:14;102162.00;;;5.20
15607;BMP180;7865;50.918;4.510;2022-12-01T07:17:16;102165.00;;;5.20
15607;BMP180;7865;50.918;4.510;2022-12-01T07:22:18;102163.00;;;5.30
15607;BMP180;7865;50.918;4.510;2022-12-01T07:27:20;102159.00;;;5.30
15607;BMP180;7865;50.918;4.510;2022-12-01T07:32:22;102167.00;;;5.20
15607;BMP180;7865;50.918;4.510;2022-12-01T07:37:24;102165.00;;;5.20
15607;BMP180;7865;50.918;4.510;2022-12-01T07:42:25;102169.00;;;5.20
15607;BMP180;7865;50.918;4.510;2022-12-01T07:47:27;102169.00;;;5.20
15607;BMP180;7865;50.918;4.510;2022-12-01T07:52:29;102176.00;;;5.30
15607;BMP180;7865;50.918;4.510;2022-12-01T07:57:31;102184.00;;;5.30
15607;BMP180;7865;50.918;4.510;2022-12-01T08:02:33;102193.00;;;5.40
15607;BMP180;7865;50.918;4.510;2022-12-01T08:07:35;102190.00;;;5.40
15607;BMP180;7865;50.918;4.510;2022-12-01T08:12:37;102194.00;;;5.50
15607;BMP180;7865;50.918;4.510;2022-12-01T08:17:39;102195.00;;;5.50
15607;BMP180;7865;50.918;4.510;2022-12-01T08:22:41;102200.00;;;5.60
15607;BMP180;7865;50.918;4.510;2022-12-01T08:27:43;102204.00;;;5.60
15607;BMP180;7865;50.918;4.510;2022-12-01T08:32:44;102210.00;;;5.70
15607;BMP180;7865;50.918;4.510;2022-12-01T08:37:46;102210.00;;;5.60
15607;BMP180;7865;50.918;4.510;2022-12-01T08:42:50;102211.00;;;5.60
15607;BMP180;7865;50.918;4.510;2022-12-01T08:47:53;102217.00;;;5.70
15607;BMP180;7865;50.918;4.510;2022-12-01T08:52:59;102212.00;;;5.80
15607;BMP180;7865;50.918;4.510;2022-12-01T08:58:01;102220.00;;;5.90
15607;BMP180;7865;50.918;4.510;2022-12-01T09:03:03;102207.00;;;6.00
15607;BMP180;7865;50.918;4.510;2022-12-01T09:08:05;102212.00;;;6.00
15607;BMP180;7865;50.918;4.510;2022-12-01T09:13:25;102220.00;;;6.10
15607;BMP180;7865;50.918;4.510;2022-12-01T09:18:28;102228.00;;;6.10
15607;BMP180;7865;50.918;4.510;2022-12-01T09:23:30;102221.00;;;6.20
15607;BMP180;7865;50.918;4.510;2022-12-01T09:28:32;102216.00;;;6.20
15607;BMP180;7865;50.918;4.510;2022-12-01T09:33:34;102225.00;;;6.20
15607;BMP180;7865;50.918;4.510;2022-12-01T09:38:37;102228.00;;;6.30
15607;BMP180;7865;50.918;4.510;2022-12-01T09:43:45;102223.00;;;6.40
15607;BMP180;7865;50.918;4.510;2022-12-01T09:48:50;102236.00;;;6.50
15607;BMP180;7865;50.918;4.510;2022-12-01T09:53:57;102238.00;;;6.50
15607;BMP180;7865;50.918;4.510;2022-12-01T09:59:01;102231.00;;;6.50
15607;BMP180;7865;50.918;4.510;2022-12-01T10:04:25;102227.00;;;6.60
15607;BMP180;7865;50.918;4.510;2022-12-01T10:09:52;102220.00;;;6.70
15607;BMP180;7865;50.918;4.510;2022-12-01T10:15:09;102219.00;;;6.80
15607;BMP180;7865;50.918;4.510;2022-12-01T10:20:20;102210.00;;;7.00
15607;BMP180;7865;50.918;4.510;2022-12-01T10:25:26;102207.00;;;7.10
15607;BMP180;7865;50.918;4.510;2022-12-01T10:30:29;102207.00;;;7.30
15607;BMP180;7865;50.918;4.510;2022-12-01T10:35:31;102204.00;;;7.40
15607;BMP180;7865;50.918;4.510;2022-12-01T10:40:39;102198.00;;;7.50
15607;BMP180;7865;50.918;4.510;2022-12-01T10:45:43;102187.00;;;7.50
15607;BMP180;7865;50.918;4.510;2022-12-01T10:50:50;102188.00;;;7.50
15607;BMP180;7865;50.918;4.510;2022-12-01T10:56:09;102191.00;;;7.70
15607;BMP180;7865;50.918;4.510;2022-12-01T11:01:31;102191.00;;;7.70
15607;BMP180;7865;50.918;4.510;2022-12-01T11:06:38;102193.00;;;7.70
15607;BMP180;7865;50.918;4.510;2022-12-01T11:11:40;102186.00;;;7.80
15607;BMP180;7865;50.918;4.510;2022-12-01T11:16:44;102177.00;;;7.90
15607;BMP180;7865;50.918;4.510;2022-12-01T11:21:49;102175.00;;;8.00
15607;BMP180;7865;50.918;4.510;2022-12-01T11:26:52;102168.00;;;8.10
15607;BMP180;7865;50.918;4.510;2022-12-01T11:31:54;102173.00;;;8.00
15607;BMP180;7865;50.918;4.510;2022-12-01T11:37:02;102169.00;;;7.90
15607;BMP180;7865;50.918;4.510;2022-12-01T11:47:18;102168.00;;;7.90
15607;BMP180;7865;50.918;4.510;2022-12-01T11:52:35;102174.00;;;7.80
15607;BMP180;7865;50.918;4.510;2022-12-01T11:57:49;102171.00;;;7.80
15607;BMP180;7865;50.918;4.510;2022-12-01T12:02:56;102162.00;;;7.90
15607;BMP180;7865;50.918;4.510;2022-12-01T12:08:38;102160.00;;;8.00
15607;BMP180;7865;50.918;4.510;2022-12-01T12:24:52;102146.00;;;7.90
15607;BMP180;7865;50.918;4.510;2022-12-01T12:40:47;102134.00;;;7.60
15607;BMP180;7865;50.918;4.510;2022-12-01T12:45:58;102137.00;;;7.60
15607;BMP180;7865;50.918;4.510;2022-12-01T12:56:43;102126.00;;;7.70
15607;BMP180;7865;50.918;4.510;2022-12-01T13:12:48;102117.00;;;8.00
15607;BMP180;7865;50.918;4.510;2022-12-01T13:17:56;102112.00;;;7.80
15607;BMP180;7865;50.918;4.510;2022-12-01T13:22:59;102103.00;;;7.60
15607;BMP180;7865;50.918;4.510;2022-12-01T13:28:04;102108.00;;;7.50
15607;BMP180;7865;50.918;4.510;2022-12-01T13:33:14;102108.00;;;7.50
15607;BMP180;7865;50.918;4.510;2022-12-01T13:38:26;102098.00;;;7.50
15607;BMP180;7865;50.918;4.510;2022-12-01T13:43:30;102097.00;;;7.60
15607;BMP180;7865;50.918;4.510;2022-12-01T13:53:38;102084.00;;;7.70
15607;BMP180;7865;50.918;4.510;2022-12-01T13:58:53;102085.00;;;7.60
15607;BMP180;7865;50.918;4.510;2022-12-01T14:09:06;102094.00;;;7.30
15607;BMP180;7865;50.918;4.510;2022-12-01T14:14:18;102088.00;;;7.20
15607;BMP180;7865;50.918;4.510;2022-12-01T14:19:48;102093.00;;;7.10
15607;BMP180;7865;50.918;4.510;2022-12-01T14:24:54;102096.00;;;7.00
15607;BMP180;7865;50.918;4.510;2022-12-01T14:29:56;102080.00;;;7.00
15607;BMP180;7865;50.918;4.510;2022-12-01T14:34:59;102088.00;;;7.00
15607;BMP180;7865;50.918;4.510;2022-12-01T14:40:05;102082.00;;;6.90
15607;BMP180;7865;50.918;4.510;2022-12-01T14:45:12;102082.00;;;6.90
15607;BMP180;7865;50.918;4.510;2022-12-01T14:50:20;102087.00;;;6.90
15607;BMP180;7865;50.918;4.510;2022-12-01T14:55:38;102085.00;;;6.80
15607;BMP180;7865;50.918;4.510;2022-12-01T15:00:53;102093.00;;;6.80
15607;BMP180;7865;50.918;4.510;2022-12-01T15:05:56;102091.00;;;6.70
15607;BMP180;7865;50.918;4.510;2022-12-01T15:11:00;102082.00;;;6.60
15607;BMP180;7865;50.918;4.510;2022-12-01T15:16:18;102084.00;;;6.60
15607;BMP180;7865;50.918;4.510;2022-12-01T15:21:29;102084.00;;;6.50
15607;BMP180;7865;50.918;4.510;2022-12-01T15:26:49;102098.00;;;6.40
15607;BMP180;7865;50.918;4.510;2022-12-01T15:32:04;102082.00;;;6.40
15607;BMP180;7865;50.918;4.510;2022-12-01T15:37:16;102097.00;;;6.30
15607;BMP180;7865;50.918;4.510;2022-12-01T15:42:33;102096.00;;;6.30
15607;BMP180;7865;50.918;4.510;2022-12-01T15:52:44;102087.00;;;6.20
15607;BMP180;7865;50.918;4.510;2022-12-01T15:57:46;102094.00;;;6.20
15607;BMP180;7865;50.918;4.510;2022-12-01T16:02:53;102103.00;;;6.20
15607;BMP180;7865;50.918;4.510;2022-12-01T16:07:56;102107.00;;;6.10
15607;BMP180;7865;50.918;4.510;2022-12-01T16:18:52;102098.00;;;6.00
15607;BMP180;7865;50.918;4.510;2022-12-01T16:24:04;102088.00;;;6.00
15607;BMP180;7865;50.918;4.510;2022-12-01T16:29:22;102098.00;;;5.90
15607;BMP180;7865;50.918;4.510;2022-12-01T16:34:25;102091.00;;;5.90
15607;BMP180;7865;50.918;4.510;2022-12-01T16:39:47;102098.00;;;5.80
15607;BMP180;7865;50.918;4.510;2022-12-01T16:44:51;102089.00;;;5.80
15607;BMP180;7865;50.918;4.510;2022-12-01T16:49:53;102094.00;;;5.70
15607;BMP180;7865;50.918;4.510;2022-12-01T16:54:55;102092.00;;;5.70
15607;BMP180;7865;50.918;4.510;2022-12-01T16:59:57;102113.00;;;5.70
15607;BMP180;7865;50.918;4.510;2022-12-01T17:04:59;102111.00;;;5.70
15607;BMP180;7865;50.918;4.510;2022-12-01T17:10:02;102113.00;;;5.70
15607;BMP180;7865;50.918;4.510;2022-12-01T17:15:04;102125.00;;;5.70
15607;BMP180;7865;50.918;4.510;2022-12-01T17:20:07;102129.00;;;5.70
15607;BMP180;7865;50.918;4.510;2022-12-01T17:25:09;102121.00;;;5.70
15607;BMP180;7865;50.918;4.510;2022-12-01T17:30:12;102118.00;;;5.70
15607;BMP180;7865;50.918;4.510;2022-12-01T17:35:14;102122.00;;;5.70
15607;BMP180;7865;50.918;4.510;2022-12-01T17:40:16;102127.00;;;5.70
15607;BMP180;7865;50.918;4.510;2022-12-01T17:45:18;102118.00;;;5.70
15607;BMP180;7865;50.918;4.510;2022-12-01T17:50:20;102125.00;;;5.70
15607;BMP180;7865;50.918;4.510;2022-12-01T17:55:22;102110.00;;;5.60
15607;BMP180;7865;50.918;4.510;2022-12-01T18:00:23;102101.00;;;5.70
15607;BMP180;7865;50.918;4.510;2022-12-01T18:05:25;102114.00;;;5.70
15607;BMP180;7865;50.918;4.510;2022-12-01T18:10:29;102106.00;;;5.70
15607;BMP180;7865;50.918;4.510;2022-12-01T18:15:31;102098.00;;;5.70
15607;BMP180;7865;50.918;4.510;2022-12-01T18:20:39;102099.00;;;5.70
15607;BMP180;7865;50.918;4.510;2022-12-01T18:25:42;102099.00;;;5.70
15607;BMP180;7865;50.918;4.510;2022-12-01T18:30:43;102100.00;;;5.70
15607;BMP180;7865;50.918;4.510;2022-12-01T18:35:47;102099.00;;;5.60
15607;BMP180;7865;50.918;4.510;2022-12-01T18:40:49;102104.00;;;5.60
15607;BMP180;7865;50.918;4.510;2022-12-01T18:45:51;102094.00;;;5.70
15607;BMP180;7865;50.918;4.510;2022-12-01T18:50:53;102100.00;;;5.70
15607;BMP180;7865;50.918;4.510;2022-12-01T18:56:05;102109.00;;;5.70
15607;BMP180;7865;50.918;4.510;2022-12-01T19:01:24;102096.00;;;5.70
15607;BMP180;7865;50.918;4.510;2022-12-01T19:06:28;102093.00;;;5.60
15607;BMP180;7865;50.918;4.510;2022-12-01T19:11:32;102090.00;;;5.60
15607;BMP180;7865;50.918;4.510;2022-12-01T19:16:34;102101.00;;;5.60
15607;BMP180;7865;50.918;4.510;2022-12-01T19:21:36;102095.00;;;5.60
15607;BMP180;7865;50.918;4.510;2022-12-01T19:26:37;102086.00;;;5.60
15607;BMP180;7865;50.918;4.510;2022-12-01T19:31:39;102089.00;;;5.60
15607;BMP180;7865;50.918;4.510;2022-12-01T19:36:42;102089.00;;;5.60
15607;BMP180;7865;50.918;4.510;2022-12-01T19:41:44;102090.00;;;5.60
15607;BMP180;7865;50.918;4.510;2022-12-01T19:46:46;102087.00;;;5.60
15607;BMP180;7865;50.918;4.510;2022-12-01T19:51:48;102084.00;;;5.50
15607;BMP180;7865;50.918;4.510;2022-12-01T19:56:56;102088.00;;;5.50
15607;BMP180;7865;50.918;4.510;2022-12-01T20:01:58;102090.00;;;5.50
15607;BMP180;7865;50.918;4.510;2022-12-01T20:07:02;102085.00;;;5.50
15607;BMP180;7865;50.918;4.510;2022-12-01T20:12:04;102088.00;;;5.50
15607;BMP180;7865;50.918;4.510;2022-12-01T20:17:06;102096.00;;;5.50
15607;BMP180;7865;50.918;4.510;2022-12-01T20:22:15;102099.00;;;5.50
15607;BMP180;7865;50.918;4.510;2022-12-01T20:27:16;102091.00;;;5.50
15607;BMP180;7865;50.918;4.510;2022-12-01T20:32:20;102096.00;;;5.40
15607;BMP180;7865;50.918;4.510;2022-12-01T20:37:24;102102.00;;;5.40
15607;BMP180;7865;50.918;4.510;2022-12-01T20:42:27;102094.00;;;5.40
15607;BMP180;7865;50.918;4.510;2022-12-01T20:47:29;102086.00;;;5.40
15607;BMP180;7865;50.918;4.510;2022-12-01T20:52:32;102080.00;;;5.40
15607;BMP180;7865;50.918;4.510;2022-12-01T20:57:34;102082.00;;;5.30
15607;BMP180;7865;50.918;4.510;2022-12-01T21:02:35;102072.00;;;5.30
15607;BMP180;7865;50.918;4.510;2022-12-01T21:07:38;102066.00;;;5.30
15607;BMP180;7865;50.918;4.510;2022-12-01T21:12:41;102068.00;;;5.30
15607;BMP180;7865;50.918;4.510;2022-12-01T21:18:17;102063.00;;;5.30
15607;BMP180;7865;50.918;4.510;2022-12-01T21:23:20;102071.00;;;5.30
15607;BMP180;7865;50.918;4.510;2022-12-01T21:28:25;102060.00;;;5.30
15607;BMP180;7865;50.918;4.510;2022-12-01T21:33:31;102055.00;;;5.30
15607;BMP180;7865;50.918;4.510;2022-12-01T21:38:33;102048.00;;;5.30
15607;BMP180;7865;50.918;4.510;2022-12-01T21:43:35;102051.00;;;5.30
15607;BMP180;7865;50.918;4.510;2022-12-01T21:48:39;102049.00;;;5.30
15607;BMP180;7865;50.918;4.510;2022-12-01T21:53:43;102045.00;;;5.30
15607;BMP180;7865;50.918;4.510;2022-12-01T21:58:46;102042.00;;;5.30
15607;BMP180;7865;50.918;4.510;2022-12-01T22:03:48;102040.00;;;5.30
15607;BMP180;7865;50.918;4.510;2022-12-01T22:08:57;102034.00;;;5.30
15607;BMP180;7865;50.918;4.510;2022-12-01T22:24:23;102032.00;;;5.30
15607;BMP180;7865;50.918;4.510;2022-12-01T22:29:33;102021.00;;;5.30
15607;BMP180;7865;50.918;4.510;2022-12-01T22:34:44;102022.00;;;5.20
15607;BMP180;7865;50.918;4.510;2022-12-01T22:39:49;102022.00;;;5.30
15607;BMP180;7865;50.918;4.510;2022-12-01T22:44:52;102017.00;;;5.30
15607;BMP180;7865;50.918;4.510;2022-12-01T22:49:54;102011.00;;;5.30
15607;BMP180;7865;50.918;4.510;2022-12-01T22:54:56;102011.00;;;5.30
15607;BMP180;7865;50.918;4.510;2022-12-01T23:00:16;102019.00;;;5.20
15607;BMP180;7865;50.918;4.510;2022-12-01T23:05:25;102018.00;;;5.20
15607;BMP180;7865;50.918;4.510;2022-12-01T23:10:30;102013.00;;;5.20
15607;BMP180;7865;50.918;4.510;2022-12-01T23:15:37;102008.00;;;5.20
15607;BMP180;7865;50.918;4.510;2022-12-01T23:20:41;102007.00;;;5.20
15607;BMP180;7865;50.918;4.510;2022-12-01T23:25:45;102012.00;;;5.20
15607;BMP180;7865;50.918;4.510;2022-12-01T23:30:51;102004.00;;;5.20
15607;BMP180;7865;50.918;4.510;2022-12-01T23:41:00;101997.00;;;5.20
15607;BMP180;7865;50.918;4.510;2022-12-01T23:56:23;101988.00;;;5.10
